sensor_id;sensor_type;location;lat;lon;timestamp;P1;durP1;ratioP1;P2;durP2;ratioP2
22429;SDS011;11382;48.086;11.632;2022-11-20T00:01:04;3.15;;;1.67;;
22429;SDS011;11382;48.086;11.632;2022-11-20T00:03:33;2.53;;;1.80;;
22429;SDS011;11382;48.086;11.632;2022-11-20T00:06:01;3.58;;;2.00;;
22429;SDS011;11382;48.086;11.632;2022-11-20T00:08:29;3.25;;;2.03;;
22429;SDS011;11382;48.086;11.632;2022-11-20T00:11:01;6.03;;;1.85;;
22429;SDS011;11382;48.086;11.632;2022-11-20T00:13:30;3.65;;;1.80;;
22429;SDS011;11382;48.086;11.632;2022-11-20T00:15:58;3.95;;;1.75;;
22429;SDS011;11382;48.086;11.632;2022-11-20T00:18:28;1.92;;;1.50;;
22429;SDS011;11382;48.086;11.632;2022-11-20T00:21:00;2.65;;;1.80;;
22429;SDS011;11382;48.086;11.632;2022-11-20T00:23:28;5.05;;;2.15;;
22429;SDS011;11382;48.086;11.632;2022-11-20T00:25:57;2.50;;;1.80;;
22429;SDS011;11382;48.086;11.632;2022-11-20T00:28:31;2.33;;;1.90;;
22429;SDS011;11382;48.086;11.632;2022-11-20T00:31:02;4.57;;;1.90;;
22429;SDS011;11382;48.086;11.632;2022-11-20T00:33:31;2.60;;;1.95;;
22429;SDS011;11382;48.086;11.632;2022-11-20T00:36:00;2.78;;;1.73;;
22429;SDS011;11382;48.086;11.632;2022-11-20T00:38:30;2.67;;;1.70;;
22429;SDS011;11382;48.086;11.632;2022-11-20T00:40:58;3.08;;;2.05;;
22429;SDS011;11382;48.086;11.632;2022-11-20T00:43:28;2.03;;;1.60;;
22429;SDS011;11382;48.086;11.632;2022-11-20T00:45:57;2.63;;;1.95;;
22429;SDS011;11382;48.086;11.632;2022-11-20T00:48:25;1.95;;;1.70;;
22429;SDS011;11382;48.086;11.632;2022-11-20T00:50:53;2.70;;;1.95;;
22429;SDS011;11382;48.086;11.632;2022-11-20T00:53:22;3.90;;;1.98;;
22429;SDS011;11382;48.086;11.632;2022-11-20T00:55:53;3.25;;;2.20;;
22429;SDS011;11382;48.086;11.632;2022-11-20T00:58:22;3.38;;;1.75;;
22429;SDS011;11382;48.086;11.632;2022-11-20T01:00:52;3.97;;;1.90;;
22429;SDS011;11382;48.086;11.632;2022-11-20T01:03:20;3.30;;;1.75;;
22429;SDS011;11382;48.086;11.632;2022-11-20T01:05:52;4.13;;;1.90;;
22429;SDS011;11382;48.086;11.632;2022-11-20T01:08:20;3.47;;;1.90;;
22429;SDS011;11382;48.086;11.632;2022-11-20T01:10:48;4.05;;;1.60;;
22429;SDS011;11382;48.086;11.632;2022-11-20T01:13:16;1.90;;;1.70;;
22429;SDS011;11382;48.086;11.632;2022-11-20T01:16:03;5.30;;;2.00;;
22429;SDS011;11382;48.086;11.632;2022-11-20T01:18:33;2.33;;;1.70;;
22429;SDS011;11382;48.086;11.632;2022-11-20T01:21:02;2.45;;;1.75;;
22429;SDS011;11382;48.086;11.632;2022-11-20T01:23:32;3.83;;;1.80;;
22429;SDS011;11382;48.086;11.632;2022-11-20T01:26:01;2.75;;;1.90;;
22429;SDS011;11382;48.086;11.632;2022-11-20T01:28:30;2.88;;;2.28;;
22429;SDS011;11382;48.086;11.632;2022-11-20T01:30:59;3.53;;;1.80;;
22429;SDS011;11382;48.086;11.632;2022-11-20T01:33:29;3.00;;;1.88;;
22429;SDS011;11382;48.086;11.632;2022-11-20T01:36:03;2.95;;;1.80;;
22429;SDS011;11382;48.086;11.632;2022-11-20T01:38:32;3.78;;;2.08;;
22429;SDS011;11382;48.086;11.632;2022-11-20T01:41:00;2.40;;;1.98;;
22429;SDS011;11382;48.086;11.632;2022-11-20T01:43:29;2.38;;;1.90;;
22429;SDS011;11382;48.086;11.632;2022-11-20T01:45:58;2.20;;;1.88;;
22429;SDS011;11382;48.086;11.632;2022-11-20T01:48:35;3.47;;;2.35;;
22429;SDS011;11382;48.086;11.632;2022-11-20T01:51:06;2.55;;;2.10;;
22429;SDS011;11382;48.086;11.632;2022-11-20T01:53:40;3.47;;;2.17;;
22429;SDS011;11382;48.086;11.632;2022-11-20T01:56:09;3.03;;;2.30;;
22429;SDS011;11382;48.086;11.632;2022-11-20T01:58:41;2.63;;;2.30;;
22429;SDS011;11382;48.086;11.632;2022-11-20T02:03:42;4.10;;;2.28;;
22429;SDS011;11382;48.086;11.632;2022-11-20T02:06:12;4.50;;;2.40;;
22429;SDS011;11382;48.086;11.632;2022-11-20T02:08:44;2.42;;;2.10;;
22429;SDS011;11382;48.086;11.632;2022-11-20T02:11:13;3.40;;;2.28;;
22429;SDS011;11382;48.086;11.632;2022-11-20T02:13:41;4.93;;;2.20;;
22429;SDS011;11382;48.086;11.632;2022-11-20T02:16:12;3.90;;;2.20;;
22429;SDS011;11382;48.086;11.632;2022-11-20T02:18:44;3.58;;;2.40;;
22429;SDS011;11382;48.086;11.632;2022-11-20T02:21:15;2.58;;;2.15;;
22429;SDS011;11382;48.086;11.632;2022-11-20T02:24:04;5.80;;;2.50;;
22429;SDS011;11382;48.086;11.632;2022-11-20T02:26:38;6.90;;;2.63;;
22429;SDS011;11382;48.086;11.632;2022-11-20T02:29:10;4.45;;;2.20;;
22429;SDS011;11382;48.086;11.632;2022-11-20T02:31:40;3.25;;;2.70;;
22429;SDS011;11382;48.086;11.632;2022-11-20T02:34:09;3.40;;;2.22;;
22429;SDS011;11382;48.086;11.632;2022-11-20T02:36:38;2.55;;;2.30;;
22429;SDS011;11382;48.086;11.632;2022-11-20T02:39:10;2.97;;;2.47;;
22429;SDS011;11382;48.086;11.632;2022-11-20T02:41:43;3.28;;;2.60;;
22429;SDS011;11382;48.086;11.632;2022-11-20T02:44:11;4.30;;;2.50;;
22429;SDS011;11382;48.086;11.632;2022-11-20T02:46:39;3.30;;;2.67;;
22429;SDS011;11382;48.086;11.632;2022-11-20T02:49:07;3.17;;;2.50;;
22429;SDS011;11382;48.086;11.632;2022-11-20T02:51:35;3.67;;;2.45;;
22429;SDS011;11382;48.086;11.632;2022-11-20T02:54:04;4.45;;;2.50;;
22429;SDS011;11382;48.086;11.632;2022-11-20T02:56:33;2.75;;;2.28;;
22429;SDS011;11382;48.086;11.632;2022-11-20T02:59:01;3.88;;;2.60;;
22429;SDS011;11382;48.086;11.632;2022-11-20T03:01:30;4.68;;;2.80;;
22429;SDS011;11382;48.086;11.632;2022-11-20T03:03:58;3.42;;;2.60;;
22429;SDS011;11382;48.086;11.632;2022-11-20T03:06:26;4.90;;;2.25;;
22429;SDS011;11382;48.086;11.632;2022-11-20T03:08:54;2.90;;;2.35;;
22429;SDS011;11382;48.086;11.632;2022-11-20T03:11:22;2.33;;;2.10;;
22429;SDS011;11382;48.086;11.632;2022-11-20T03:13:52;4.45;;;2.72;;
22429;SDS011;11382;48.086;11.632;2022-11-20T03:16:21;3.20;;;2.10;;
22429;SDS011;11382;48.086;11.632;2022-11-20T03:18:51;4.15;;;2.60;;
22429;SDS011;11382;48.086;11.632;2022-11-20T03:21:20;4.03;;;2.10;;
22429;SDS011;11382;48.086;11.632;2022-11-20T03:23:47;3.10;;;2.47;;
22429;SDS011;11382;48.086;11.632;2022-11-20T03:26:16;4.60;;;2.40;;
22429;SDS011;11382;48.086;11.632;2022-11-20T03:28:46;4.68;;;2.63;;
22429;SDS011;11382;48.086;11.632;2022-11-20T03:31:18;3.15;;;2.50;;
22429;SDS011;11382;48.086;11.632;2022-11-20T03:33:47;5.40;;;2.92;;
22429;SDS011;11382;48.086;11.632;2022-11-20T03:36:16;2.80;;;2.30;;
22429;SDS011;11382;48.086;11.632;2022-11-20T03:38:46;4.07;;;2.70;;
22429;SDS011;11382;48.086;11.632;2022-11-20T03:41:15;5.35;;;2.97;;
22429;SDS011;11382;48.086;11.632;2022-11-20T03:43:46;3.47;;;2.70;;
22429;SDS011;11382;48.086;11.632;2022-11-20T03:46:16;4.00;;;2.40;;
22429;SDS011;11382;48.086;11.632;2022-11-20T03:48:45;5.47;;;2.85;;
22429;SDS011;11382;48.086;11.632;2022-11-20T03:51:17;2.80;;;2.22;;
22429;SDS011;11382;48.086;11.632;2022-11-20T03:53:48;3.08;;;2.40;;
22429;SDS011;11382;48.086;11.632;2022-11-20T03:56:18;5.35;;;2.83;;
22429;SDS011;11382;48.086;11.632;2022-11-20T03:58:47;3.13;;;2.60;;
22429;SDS011;11382;48.086;11.632;2022-11-20T04:01:17;3.88;;;2.38;;
22429;SDS011;11382;48.086;11.632;2022-11-20T04:03:47;3.15;;;2.53;;
22429;SDS011;11382;48.086;11.632;2022-11-20T04:06:16;3.17;;;2.63;;
22429;SDS011;11382;48.086;11.632;2022-11-20T04:08:45;3.20;;;1.88;;
22429;SDS011;11382;48.086;11.632;2022-11-20T04:11:19;3.53;;;2.20;;
22429;SDS011;11382;48.086;11.632;2022-11-20T04:13:50;5.70;;;2.33;;
22429;SDS011;11382;48.086;11.632;2022-11-20T04:16:22;3.60;;;2.70;;
22429;SDS011;11382;48.086;11.632;2022-11-20T04:18:51;2.75;;;2.30;;
22429;SDS011;11382;48.086;11.632;2022-11-20T04:21:20;5.18;;;2.72;;
22429;SDS011;11382;48.086;11.632;2022-11-20T04:23:48;3.83;;;2.30;;
22429;SDS011;11382;48.086;11.632;2022-11-20T04:26:17;4.43;;;2.20;;
22429;SDS011;11382;48.086;11.632;2022-11-20T04:28:45;2.83;;;2.30;;
22429;SDS011;11382;48.086;11.632;2022-11-20T04:31:14;2.63;;;2.17;;
22429;SDS011;11382;48.086;11.632;2022-11-20T04:33:44;2.70;;;2.30;;
22429;SDS011;11382;48.086;11.632;2022-11-20T04:36:13;3.13;;;2.30;;
22429;SDS011;11382;48.086;11.632;2022-11-20T04:38:43;2.30;;;2.00;;
22429;SDS011;11382;48.086;11.632;2022-11-20T04:41:13;3.55;;;2.50;;
22429;SDS011;11382;48.086;11.632;2022-11-20T04:43:45;3.38;;;2.45;;
22429;SDS011;11382;48.086;11.632;2022-11-20T04:46:15;2.95;;;2.65;;
22429;SDS011;11382;48.086;11.632;2022-11-20T04:48:44;3.47;;;2.67;;
22429;SDS011;11382;48.086;11.632;2022-11-20T04:51:13;3.60;;;2.38;;
22429;SDS011;11382;48.086;11.632;2022-11-20T04:53:41;4.35;;;2.50;;
22429;SDS011;11382;48.086;11.632;2022-11-20T04:56:11;4.57;;;2.85;;
22429;SDS011;11382;48.086;11.632;2022-11-20T04:58:39;3.80;;;2.92;;
22429;SDS011;11382;48.086;11.632;2022-11-20T05:01:09;3.50;;;2.90;;
22429;SDS011;11382;48.086;11.632;2022-11-20T05:03:39;3.78;;;2.55;;
22429;SDS011;11382;48.086;11.632;2022-11-20T05:06:10;3.60;;;2.78;;
22429;SDS011;11382;48.086;11.632;2022-11-20T05:08:39;6.38;;;2.60;;
22429;SDS011;11382;48.086;11.632;2022-11-20T05:11:08;3.20;;;2.30;;
22429;SDS011;11382;48.086;11.632;2022-11-20T05:13:38;4.47;;;2.50;;
22429;SDS011;11382;48.086;11.632;2022-11-20T05:16:07;4.60;;;2.70;;
22429;SDS011;11382;48.086;11.632;2022-11-20T05:18:37;3.58;;;2.90;;
22429;SDS011;11382;48.086;11.632;2022-11-20T05:21:05;3.38;;;2.65;;
22429;SDS011;11382;48.086;11.632;2022-11-20T05:23:36;5.00;;;2.75;;
22429;SDS011;11382;48.086;11.632;2022-11-20T05:26:05;3.30;;;2.75;;
22429;SDS011;11382;48.086;11.632;2022-11-20T05:28:34;4.55;;;2.85;;
22429;SDS011;11382;48.086;11.632;2022-11-20T05:31:06;3.65;;;2.42;;
22429;SDS011;11382;48.086;11.632;2022-11-20T05:33:35;3.22;;;2.80;;
22429;SDS011;11382;48.086;11.632;2022-11-20T05:36:03;3.38;;;2.60;;
22429;SDS011;11382;48.086;11.632;2022-11-20T05:38:32;4.05;;;2.80;;
22429;SDS011;11382;48.086;11.632;2022-11-20T05:41:05;4.93;;;2.50;;
22429;SDS011;11382;48.086;11.632;2022-11-20T05:43:34;3.08;;;2.55;;
22429;SDS011;11382;48.086;11.632;2022-11-20T05:46:03;5.53;;;2.83;;
22429;SDS011;11382;48.086;11.632;2022-11-20T05:48:33;4.22;;;2.60;;
22429;SDS011;11382;48.086;11.632;2022-11-20T05:51:03;3.67;;;2.70;;
22429;SDS011;11382;48.086;11.632;2022-11-20T05:53:32;2.95;;;2.05;;
22429;SDS011;11382;48.086;11.632;2022-11-20T05:56:02;2.63;;;2.42;;
22429;SDS011;11382;48.086;11.632;2022-11-20T05:58:34;3.38;;;2.38;;
22429;SDS011;11382;48.086;11.632;2022-11-20T06:01:05;3.72;;;2.72;;
22429;SDS011;11382;48.086;11.632;2022-11-20T06:03:35;3.35;;;2.53;;
22429;SDS011;11382;48.086;11.632;2022-11-20T06:06:03;4.07;;;2.90;;
22429;SDS011;11382;48.086;11.632;2022-11-20T06:08:33;3.85;;;2.90;;
22429;SDS011;11382;48.086;11.632;2022-11-20T06:11:06;3.67;;;2.78;;
22429;SDS011;11382;48.086;11.632;2022-11-20T06:13:35;5.32;;;2.67;;
22429;SDS011;11382;48.086;11.632;2022-11-20T06:16:08;3.95;;;2.80;;
22429;SDS011;11382;48.086;11.632;2022-11-20T06:18:37;3.92;;;2.97;;
22429;SDS011;11382;48.086;11.632;2022-11-20T06:21:06;4.13;;;2.90;;
22429;SDS011;11382;48.086;11.632;2022-11-20T06:23:35;4.95;;;2.70;;
22429;SDS011;11382;48.086;11.632;2022-11-20T06:26:06;5.45;;;2.80;;
22429;SDS011;11382;48.086;11.632;2022-11-20T06:28:35;3.90;;;2.60;;
22429;SDS011;11382;48.086;11.632;2022-11-20T06:31:03;3.30;;;2.70;;
22429;SDS011;11382;48.086;11.632;2022-11-20T06:33:33;3.90;;;2.70;;
22429;SDS011;11382;48.086;11.632;2022-11-20T06:36:01;4.20;;;2.95;;
22429;SDS011;11382;48.086;11.632;2022-11-20T06:38:36;3.75;;;3.00;;
22429;SDS011;11382;48.086;11.632;2022-11-20T06:41:06;3.17;;;2.63;;
22429;SDS011;11382;48.086;11.632;2022-11-20T06:43:37;2.72;;;2.25;;
22429;SDS011;11382;48.086;11.632;2022-11-20T06:46:06;3.00;;;2.38;;
22429;SDS011;11382;48.086;11.632;2022-11-20T06:48:34;4.00;;;3.08;;
22429;SDS011;11382;48.086;11.632;2022-11-20T06:51:02;5.72;;;3.70;;
22429;SDS011;11382;48.086;11.632;2022-11-20T06:53:31;6.85;;;4.63;;
22429;SDS011;11382;48.086;11.632;2022-11-20T06:55:59;5.18;;;3.95;;
22429;SDS011;11382;48.086;11.632;2022-11-20T06:58:29;4.75;;;4.35;;
22429;SDS011;11382;48.086;11.632;2022-11-20T07:00:58;4.57;;;3.58;;
22429;SDS011;11382;48.086;11.632;2022-11-20T07:03:27;6.20;;;3.33;;
22429;SDS011;11382;48.086;11.632;2022-11-20T07:05:55;6.07;;;3.13;;
22429;SDS011;11382;48.086;11.632;2022-11-20T07:08:24;4.45;;;2.90;;
22429;SDS011;11382;48.086;11.632;2022-11-20T07:10:52;6.28;;;3.90;;
22429;SDS011;11382;48.086;11.632;2022-11-20T07:13:24;6.80;;;3.70;;
22429;SDS011;11382;48.086;11.632;2022-11-20T07:15:54;4.75;;;3.17;;
22429;SDS011;11382;48.086;11.632;2022-11-20T07:18:26;4.32;;;2.65;;
22429;SDS011;11382;48.086;11.632;2022-11-20T07:20:54;4.32;;;2.78;;
22429;SDS011;11382;48.086;11.632;2022-11-20T07:23:22;4.43;;;2.70;;
22429;SDS011;11382;48.086;11.632;2022-11-20T07:25:50;2.53;;;2.00;;
22429;SDS011;11382;48.086;11.632;2022-11-20T07:28:18;4.03;;;2.83;;
22429;SDS011;11382;48.086;11.632;2022-11-20T07:30:49;3.75;;;2.55;;
22429;SDS011;11382;48.086;11.632;2022-11-20T07:33:19;3.05;;;2.63;;
22429;SDS011;11382;48.086;11.632;2022-11-20T07:35:47;4.15;;;2.70;;
22429;SDS011;11382;48.086;11.632;2022-11-20T07:38:15;4.30;;;2.50;;
22429;SDS011;11382;48.086;11.632;2022-11-20T07:40:43;5.75;;;3.45;;
22429;SDS011;11382;48.086;11.632;2022-11-20T07:43:11;4.95;;;2.95;;
22429;SDS011;11382;48.086;11.632;2022-11-20T07:45:41;5.07;;;2.83;;
22429;SDS011;11382;48.086;11.632;2022-11-20T07:48:09;3.33;;;2.70;;
22429;SDS011;11382;48.086;11.632;2022-11-20T07:50:39;2.88;;;2.50;;
22429;SDS011;11382;48.086;11.632;2022-11-20T07:53:07;6.18;;;2.60;;
22429;SDS011;11382;48.086;11.632;2022-11-20T07:55:36;2.50;;;2.10;;
22429;SDS011;11382;48.086;11.632;2022-11-20T07:58:04;3.67;;;2.20;;
22429;SDS011;11382;48.086;11.632;2022-11-20T08:00:32;3.67;;;2.70;;
22429;SDS011;11382;48.086;11.632;2022-11-20T08:03:02;4.68;;;2.67;;
22429;SDS011;11382;48.086;11.632;2022-11-20T08:05:30;2.25;;;2.05;;
22429;SDS011;11382;48.086;11.632;2022-11-20T08:08:00;2.30;;;2.10;;
22429;SDS011;11382;48.086;11.632;2022-11-20T08:10:28;4.63;;;2.25;;
22429;SDS011;11382;48.086;11.632;2022-11-20T08:12:56;6.50;;;2.50;;
22429;SDS011;11382;48.086;11.632;2022-11-20T08:15:47;5.72;;;2.50;;
22429;SDS011;11382;48.086;11.632;2022-11-20T08:18:16;2.42;;;2.22;;
22429;SDS011;11382;48.086;11.632;2022-11-20T08:21:01;2.55;;;2.03;;
22429;SDS011;11382;48.086;11.632;2022-11-20T08:23:32;2.42;;;2.05;;
22429;SDS011;11382;48.086;11.632;2022-11-20T08:26:00;3.30;;;1.92;;
22429;SDS011;11382;48.086;11.632;2022-11-20T08:28:28;4.20;;;2.10;;
22429;SDS011;11382;48.086;11.632;2022-11-20T08:30:59;2.60;;;1.95;;
22429;SDS011;11382;48.086;11.632;2022-11-20T08:33:27;2.90;;;1.95;;
22429;SDS011;11382;48.086;11.632;2022-11-20T08:35:58;2.55;;;1.70;;
22429;SDS011;11382;48.086;11.632;2022-11-20T08:38:27;1.73;;;1.63;;
22429;SDS011;11382;48.086;11.632;2022-11-20T08:40:57;3.70;;;1.63;;
22429;SDS011;11382;48.086;11.632;2022-11-20T08:43:41;4.50;;;1.67;;
22429;SDS011;11382;48.086;11.632;2022-11-20T08:46:09;2.45;;;1.70;;
22429;SDS011;11382;48.086;11.632;2022-11-20T08:48:37;2.97;;;1.75;;
22429;SDS011;11382;48.086;11.632;2022-11-20T08:51:05;2.83;;;1.60;;
22429;SDS011;11382;48.086;11.632;2022-11-20T08:53:33;3.15;;;1.85;;
22429;SDS011;11382;48.086;11.632;2022-11-20T08:56:03;3.13;;;1.60;;
22429;SDS011;11382;48.086;11.632;2022-11-20T08:58:31;3.67;;;1.40;;
22429;SDS011;11382;48.086;11.632;2022-11-20T09:01:19;2.90;;;1.77;;
22429;SDS011;11382;48.086;11.632;2022-11-20T09:03:49;2.75;;;2.10;;
22429;SDS011;11382;48.086;11.632;2022-11-20T09:06:17;2.45;;;1.60;;
22429;SDS011;11382;48.086;11.632;2022-11-20T09:08:45;1.60;;;1.38;;
22429;SDS011;11382;48.086;11.632;2022-11-20T09:11:15;2.28;;;1.48;;
22429;SDS011;11382;48.086;11.632;2022-11-20T09:13:43;1.88;;;1.50;;
22429;SDS011;11382;48.086;11.632;2022-11-20T09:16:11;1.67;;;1.20;;
22429;SDS011;11382;48.086;11.632;2022-11-20T09:18:39;2.55;;;1.52;;
22429;SDS011;11382;48.086;11.632;2022-11-20T09:21:10;1.40;;;1.30;;
22429;SDS011;11382;48.086;11.632;2022-11-20T09:23:39;1.48;;;1.30;;
22429;SDS011;11382;48.086;11.632;2022-11-20T09:26:10;1.75;;;1.40;;
22429;SDS011;11382;48.086;11.632;2022-11-20T09:28:41;1.75;;;1.30;;
22429;SDS011;11382;48.086;11.632;2022-11-20T09:31:09;2.88;;;1.45;;
22429;SDS011;11382;48.086;11.632;2022-11-20T09:33:47;2.38;;;1.60;;
22429;SDS011;11382;48.086;11.632;2022-11-20T09:36:15;1.42;;;1.02;;
22429;SDS011;11382;48.086;11.632;2022-11-20T09:38:44;1.98;;;1.33;;
22429;SDS011;11382;48.086;11.632;2022-11-20T09:41:19;2.30;;;1.40;;
22429;SDS011;11382;48.086;11.632;2022-11-20T09:44:17;1.40;;;1.15;;
22429;SDS011;11382;48.086;11.632;2022-11-20T09:46:56;1.20;;;1.10;;
22429;SDS011;11382;48.086;11.632;2022-11-20T09:49:32;1.92;;;1.30;;
22429;SDS011;11382;48.086;11.632;2022-11-20T09:52:12;1.25;;;1.15;;
22429;SDS011;11382;48.086;11.632;2022-11-20T09:54:49;1.98;;;1.00;;
22429;SDS011;11382;48.086;11.632;2022-11-20T09:57:20;2.47;;;1.20;;
22429;SDS011;11382;48.086;11.632;2022-11-20T09:59:54;1.83;;;1.35;;
22429;SDS011;11382;48.086;11.632;2022-11-20T10:02:27;2.13;;;1.00;;
22429;SDS011;11382;48.086;11.632;2022-11-20T10:04:59;2.85;;;1.20;;
22429;SDS011;11382;48.086;11.632;2022-11-20T10:07:33;1.45;;;1.10;;
22429;SDS011;11382;48.086;11.632;2022-11-20T10:10:13;3.10;;;1.10;;
22429;SDS011;11382;48.086;11.632;2022-11-20T10:12:48;1.45;;;1.00;;
22429;SDS011;11382;48.086;11.632;2022-11-20T10:15:29;2.08;;;1.20;;
22429;SDS011;11382;48.086;11.632;2022-11-20T10:18:10;1.25;;;0.98;;
22429;SDS011;11382;48.086;11.632;2022-11-20T10:20:48;1.75;;;1.05;;
22429;SDS011;11382;48.086;11.632;2022-11-20T10:23:41;2.55;;;1.13;;
22429;SDS011;11382;48.086;11.632;2022-11-20T10:26:21;2.00;;;1.15;;
22429;SDS011;11382;48.086;11.632;2022-11-20T10:28:56;2.35;;;1.10;;
22429;SDS011;11382;48.086;11.632;2022-11-20T10:31:37;1.73;;;1.38;;
22429;SDS011;11382;48.086;11.632;2022-11-20T10:34:08;1.95;;;0.90;;
22429;SDS011;11382;48.086;11.632;2022-11-20T10:36:51;1.73;;;0.88;;
22429;SDS011;11382;48.086;11.632;2022-11-20T10:39:25;1.30;;;1.20;;
22429;SDS011;11382;48.086;11.632;2022-11-20T10:41:59;1.00;;;0.90;;
22429;SDS011;11382;48.086;11.632;2022-11-20T10:44:29;2.20;;;1.15;;
22429;SDS011;11382;48.086;11.632;2022-11-20T10:47:24;1.55;;;1.13;;
22429;SDS011;11382;48.086;11.632;2022-11-20T10:49:55;2.33;;;0.85;;
22429;SDS011;11382;48.086;11.632;2022-11-20T10:52:26;1.98;;;0.80;;
22429;SDS011;11382;48.086;11.632;2022-11-20T10:55:03;2.15;;;0.82;;
22429;SDS011;11382;48.086;11.632;2022-11-20T10:57:44;0.80;;;0.80;;
22429;SDS011;11382;48.086;11.632;2022-11-20T11:00:20;1.67;;;0.80;;
22429;SDS011;11382;48.086;11.632;2022-11-20T11:02:50;1.27;;;1.02;;
22429;SDS011;11382;48.086;11.632;2022-11-20T11:05:23;0.88;;;0.77;;
22429;SDS011;11382;48.086;11.632;2022-11-20T11:08:00;1.00;;;0.65;;
22429;SDS011;11382;48.086;11.632;2022-11-20T11:10:31;0.90;;;0.90;;
22429;SDS011;11382;48.086;11.632;2022-11-20T11:13:03;1.38;;;0.80;;
22429;SDS011;11382;48.086;11.632;2022-11-20T11:15:36;1.00;;;0.70;;
22429;SDS011;11382;48.086;11.632;2022-11-20T11:18:09;2.75;;;0.77;;
22429;SDS011;11382;48.086;11.632;2022-11-20T11:20:38;1.23;;;1.00;;
22429;SDS011;11382;48.086;11.632;2022-11-20T11:23:10;2.97;;;1.23;;
22429;SDS011;11382;48.086;11.632;2022-11-20T11:25:56;1.10;;;1.00;;
22429;SDS011;11382;48.086;11.632;2022-11-20T11:28:25;1.67;;;1.10;;
22429;SDS011;11382;48.086;11.632;2022-11-20T11:30:54;1.73;;;1.20;;
22429;SDS011;11382;48.086;11.632;2022-11-20T11:33:24;1.80;;;0.85;;
22429;SDS011;11382;48.086;11.632;2022-11-20T11:35:54;1.25;;;0.95;;
22429;SDS011;11382;48.086;11.632;2022-11-20T11:38:27;1.48;;;0.90;;
22429;SDS011;11382;48.086;11.632;2022-11-20T11:40:58;2.13;;;0.80;;
22429;SDS011;11382;48.086;11.632;2022-11-20T11:43:27;1.50;;;1.17;;
22429;SDS011;11382;48.086;11.632;2022-11-20T11:46:25;1.20;;;1.10;;
22429;SDS011;11382;48.086;11.632;2022-11-20T11:48:58;1.20;;;1.10;;
22429;SDS011;11382;48.086;11.632;2022-11-20T11:51:32;2.25;;;1.00;;
22429;SDS011;11382;48.086;11.632;2022-11-20T11:54:05;1.27;;;1.02;;
22429;SDS011;11382;48.086;11.632;2022-11-20T11:56:43;1.27;;;0.93;;
22429;SDS011;11382;48.086;11.632;2022-11-20T11:59:12;2.22;;;1.10;;
22429;SDS011;11382;48.086;11.632;2022-11-20T12:01:51;1.17;;;1.00;;
22429;SDS011;11382;48.086;11.632;2022-11-20T12:04:29;1.58;;;1.23;;
22429;SDS011;11382;48.086;11.632;2022-11-20T12:07:10;1.15;;;1.05;;
22429;SDS011;11382;48.086;11.632;2022-11-20T12:10:04;1.20;;;1.10;;
22429;SDS011;11382;48.086;11.632;2022-11-20T12:12:35;1.77;;;1.10;;
22429;SDS011;11382;48.086;11.632;2022-11-20T12:15:06;1.10;;;1.00;;
22429;SDS011;11382;48.086;11.632;2022-11-20T12:20:12;1.17;;;1.00;;
22429;SDS011;11382;48.086;11.632;2022-11-20T12:22:43;2.25;;;1.20;;
22429;SDS011;11382;48.086;11.632;2022-11-20T12:25:18;1.63;;;1.17;;
22429;SDS011;11382;48.086;11.632;2022-11-20T12:28:02;2.03;;;1.42;;
22429;SDS011;11382;48.086;11.632;2022-11-20T12:30:41;2.10;;;1.27;;
22429;SDS011;11382;48.086;11.632;2022-11-20T12:33:25;1.60;;;1.40;;
22429;SDS011;11382;48.086;11.632;2022-11-20T12:36:09;1.90;;;1.23;;
22429;SDS011;11382;48.086;11.632;2022-11-20T12:38:50;1.80;;;1.40;;
22429;SDS011;11382;48.086;11.632;2022-11-20T12:41:40;2.38;;;1.23;;
22429;SDS011;11382;48.086;11.632;2022-11-20T12:45:00;2.35;;;1.35;;
22429;SDS011;11382;48.086;11.632;2022-11-20T12:47:42;1.63;;;1.52;;
22429;SDS011;11382;48.086;11.632;2022-11-20T12:50:18;2.92;;;1.35;;
22429;SDS011;11382;48.086;11.632;2022-11-20T12:53:00;4.05;;;1.90;;
22429;SDS011;11382;48.086;11.632;2022-11-20T12:55:42;2.00;;;1.58;;
22429;SDS011;11382;48.086;11.632;2022-11-20T12:58:18;2.60;;;1.33;;
22429;SDS011;11382;48.086;11.632;2022-11-20T13:00:55;1.90;;;1.52;;
22429;SDS011;11382;48.086;11.632;2022-11-20T13:03:32;1.80;;;1.35;;
22429;SDS011;11382;48.086;11.632;2022-11-20T13:06:10;1.40;;;1.30;;
22429;SDS011;11382;48.086;11.632;2022-11-20T13:08:44;1.92;;;1.30;;
22429;SDS011;11382;48.086;11.632;2022-11-20T13:11:18;1.77;;;1.20;;
22429;SDS011;11382;48.086;11.632;2022-11-20T13:13:58;1.70;;;1.30;;
22429;SDS011;11382;48.086;11.632;2022-11-20T13:16:36;2.55;;;1.27;;
22429;SDS011;11382;48.086;11.632;2022-11-20T13:19:09;2.00;;;1.27;;
22429;SDS011;11382;48.086;11.632;2022-11-20T13:21:41;1.40;;;1.27;;
22429;SDS011;11382;48.086;11.632;2022-11-20T13:24:21;1.85;;;1.60;;
22429;SDS011;11382;48.086;11.632;2022-11-20T13:29:47;1.98;;;1.48;;
22429;SDS011;11382;48.086;11.632;2022-11-20T13:32:28;3.03;;;1.55;;
22429;SDS011;11382;48.086;11.632;2022-11-20T13:34:58;2.67;;;1.88;;
22429;SDS011;11382;48.086;11.632;2022-11-20T13:37:29;1.60;;;1.50;;
22429;SDS011;11382;48.086;11.632;2022-11-20T13:40:10;4.45;;;2.30;;
22429;SDS011;11382;48.086;11.632;2022-11-20T13:42:43;1.60;;;1.50;;
22429;SDS011;11382;48.086;11.632;2022-11-20T13:45:21;2.03;;;1.70;;
22429;SDS011;11382;48.086;11.632;2022-11-20T13:47:51;3.70;;;1.90;;
22429;SDS011;11382;48.086;11.632;2022-11-20T13:50:21;2.28;;;1.70;;
22429;SDS011;11382;48.086;11.632;2022-11-20T13:53:07;2.45;;;1.95;;
22429;SDS011;11382;48.086;11.632;2022-11-20T13:55:49;2.55;;;1.80;;
22429;SDS011;11382;48.086;11.632;2022-11-20T13:58:27;1.55;;;1.40;;
22429;SDS011;11382;48.086;11.632;2022-11-20T14:01:08;2.20;;;1.60;;
22429;SDS011;11382;48.086;11.632;2022-11-20T14:05:30;1.77;;;1.27;;
22429;SDS011;11382;48.086;11.632;2022-11-20T14:08:02;2.55;;;1.17;;
22429;SDS011;11382;48.086;11.632;2022-11-20T14:10:32;1.65;;;1.30;;
22429;SDS011;11382;48.086;11.632;2022-11-20T14:13:09;1.55;;;1.20;;
22429;SDS011;11382;48.086;11.632;2022-11-20T14:15:39;1.92;;;1.38;;
22429;SDS011;11382;48.086;11.632;2022-11-20T14:18:12;2.20;;;1.13;;
22429;SDS011;11382;48.086;11.632;2022-11-20T14:20:42;1.98;;;1.20;;
22429;SDS011;11382;48.086;11.632;2022-11-20T14:23:11;2.00;;;1.40;;
22429;SDS011;11382;48.086;11.632;2022-11-20T14:25:41;2.33;;;1.20;;
22429;SDS011;11382;48.086;11.632;2022-11-20T14:28:11;1.92;;;1.20;;
22429;SDS011;11382;48.086;11.632;2022-11-20T14:30:48;3.58;;;1.33;;
22429;SDS011;11382;48.086;11.632;2022-11-20T14:33:17;1.58;;;1.25;;
22429;SDS011;11382;48.086;11.632;2022-11-20T14:35:53;1.60;;;1.50;;
22429;SDS011;11382;48.086;11.632;2022-11-20T14:38:23;2.40;;;1.50;;
22429;SDS011;11382;48.086;11.632;2022-11-20T14:40:54;2.53;;;1.50;;
22429;SDS011;11382;48.086;11.632;2022-11-20T14:43:33;2.60;;;1.60;;
22429;SDS011;11382;48.086;11.632;2022-11-20T14:46:04;1.45;;;1.35;;
22429;SDS011;11382;48.086;11.632;2022-11-20T14:48:36;2.22;;;1.40;;
22429;SDS011;11382;48.086;11.632;2022-11-20T14:51:10;1.40;;;1.30;;
22429;SDS011;11382;48.086;11.632;2022-11-20T14:53:38;1.30;;;1.20;;
22429;SDS011;11382;48.086;11.632;2022-11-20T14:56:07;1.30;;;1.10;;
22429;SDS011;11382;48.086;11.632;2022-11-20T14:58:36;2.35;;;1.05;;
22429;SDS011;11382;48.086;11.632;2022-11-20T15:01:04;1.60;;;1.10;;
22429;SDS011;11382;48.086;11.632;2022-11-20T15:03:34;2.17;;;0.98;;
22429;SDS011;11382;48.086;11.632;2022-11-20T15:06:04;0.90;;;0.70;;
22429;SDS011;11382;48.086;11.632;2022-11-20T15:08:35;0.75;;;0.70;;
22429;SDS011;11382;48.086;11.632;2022-11-20T15:11:14;1.20;;;0.90;;